createdAt,value
2022-11-20T00:02:38.726Z,97.88
2022-11-20T00:05:42.924Z,97.70
2022-11-20T00:08:46.442Z,98.16
2022-11-20T00:11:49.164Z,98.67
2022-11-20T00:14:51.832Z,99.00
2022-11-20T00:17:54.547Z,98.77
2022-11-20T00:21:03.977Z,98.69
2022-11-20T00:24:07.508Z,98.55
2022-11-20T00:27:10.181Z,98.58
2022-11-20T00:30:15.038Z,98.79
2022-11-20T00:33:18.078Z,98.92
2022-11-20T00:36:24.450Z,98.84
2022-11-20T00:39:27.176Z,99.22
2022-11-20T00:42:29.953Z,99.60
2022-11-20T00:45:32.643Z,99.85
2022-11-20T00:48:35.314Z,99.98
2022-11-20T00:51:39.370Z,99.19
2022-11-20T00:54:42.061Z,99.53
2022-11-20T00:57:44.736Z,99.01
2022-11-20T01:00:47.450Z,99.26
2022-11-20T01:03:52.428Z,99.23
2022-11-20T01:06:56.521Z,98.62
2022-11-20T01:09:59.390Z,98.00
2022-11-20T01:13:15.987Z,98.52
2022-11-20T01:16:21.550Z,98.08
2022-11-20T01:19:25.831Z,98.23
2022-11-20T01:22:30.071Z,97.59
2022-11-20T01:25:32.744Z,97.47
2022-11-20T01:28:36.013Z,97.49
2022-11-20T01:31:39.419Z,98.04
2022-11-20T01:34:42.044Z,97.67
2022-11-20T01:37:46.007Z,97.95
2022-11-20T01:40:57.257Z,97.65
2022-11-20T01:43:59.290Z,97.08
2022-11-20T01:47:06.530Z,97.72
2022-11-20T01:50:16.549Z,97.57
2022-11-20T01:53:26.020Z,98.02
2022-11-20T01:56:30.470Z,97.80
2022-11-20T01:59:33.410Z,97.27
2022-11-20T02:02:36.589Z,97.33
2022-11-20T02:05:47.071Z,97.87
2022-11-20T02:08:51.236Z,97.95
2022-11-20T02:11:54.367Z,97.57
2022-11-20T02:14:56.076Z,97.95
2022-11-20T02:17:59.085Z,97.53
2022-11-20T02:21:06.913Z,97.46
2022-11-20T02:24:13.345Z,97.21
2022-11-20T02:27:18.693Z,97.94
2022-11-20T02:30:21.605Z,97.64
2022-11-20T02:33:24.219Z,97.71
2022-11-20T02:36:29.183Z,97.58
2022-11-20T02:39:33.291Z,97.74
2022-11-20T02:42:36.009Z,97.47
2022-11-20T02:45:38.906Z,97.64
2022-11-20T02:48:41.644Z,97.76
2022-11-20T02:51:44.395Z,97.63
2022-11-20T02:54:48.405Z,98.18
2022-11-20T02:57:51.059Z,97.87
2022-11-20T03:00:54.510Z,98.16
2022-11-20T03:03:57.488Z,97.63
2022-11-20T03:07:00.341Z,97.92
2022-11-20T03:10:05.150Z,97.96
2022-11-20T03:13:07.783Z,98.34
2022-11-20T03:16:12.628Z,98.78
2022-11-20T03:19:15.444Z,98.51
2022-11-20T03:22:18.112Z,98.51
2022-11-20T03:25:22.442Z,98.04
2022-11-20T03:28:25.193Z,96.99
2022-11-20T03:31:30.105Z,97.21
2022-11-20T03:34:32.797Z,96.72
2022-11-20T03:37:35.420Z,96.50
2022-11-20T03:40:39.839Z,96.09
2022-11-20T03:43:42.806Z,96.17
2022-11-20T03:46:45.476Z,94.24
2022-11-20T03:49:48.118Z,93.63
2022-11-20T03:52:50.778Z,93.25
2022-11-20T03:55:54.792Z,92.45
2022-11-20T03:58:57.767Z,91.52
2022-11-20T04:02:00.453Z,92.13
2022-11-20T04:05:03.158Z,92.42
2022-11-20T04:08:06.425Z,92.46
2022-11-20T04:11:15.869Z,92.13
2022-11-20T04:14:18.672Z,93.50
2022-11-20T04:17:21.327Z,93.19
2022-11-20T04:20:24.068Z,94.08
2022-11-20T04:23:28.829Z,94.41
2022-11-20T04:26:33.620Z,94.14
2022-11-20T04:29:36.455Z,94.23
2022-11-20T04:32:39.081Z,94.92
2022-11-20T04:35:41.736Z,94.23
2022-11-20T04:38:44.620Z,94.32
2022-11-20T04:41:48.677Z,93.90
2022-11-20T04:44:51.330Z,93.98
2022-11-20T04:47:54.618Z,93.91
2022-11-20T04:50:57.563Z,93.36
2022-11-20T04:54:00.517Z,92.62
2022-11-20T04:57:04.737Z,92.74
2022-11-20T05:00:08.720Z,93.26
2022-11-20T05:03:11.412Z,92.07
2022-11-20T05:06:15.910Z,92.34
2022-11-20T05:09:18.891Z,92.78
2022-11-20T05:12:23.196Z,93.17
2022-11-20T05:15:26.180Z,93.60
2022-11-20T05:18:28.979Z,93.65
2022-11-20T05:21:32.798Z,94.21
2022-11-20T05:24:35.715Z,94.07
2022-11-20T05:27:39.866Z,94.90
2022-11-20T05:30:42.544Z,93.80
2022-11-20T05:33:46.339Z,93.36
2022-11-20T05:36:49.026Z,93.11
2022-11-20T05:39:51.720Z,93.10
2022-11-20T05:42:55.745Z,92.00
2022-11-20T05:45:58.396Z,91.15
2022-11-20T05:49:01.035Z,90.77
2022-11-20T05:52:03.699Z,89.92
2022-11-20T05:55:07.279Z,89.96
2022-11-20T05:58:11.280Z,89.56
2022-11-20T06:01:16.147Z,89.08
2022-11-20T06:04:18.790Z,88.53
2022-11-20T06:07:21.605Z,88.14
2022-11-20T06:10:24.360Z,88.55
2022-11-20T06:13:31.264Z,88.16
2022-11-20T06:16:33.899Z,88.00
2022-11-20T06:19:38.077Z,87.78
2022-11-20T06:22:40.781Z,87.07
2022-11-20T06:25:44.856Z,87.25
2022-11-20T06:28:49.892Z,86.92
2022-11-20T06:31:52.640Z,87.99
2022-11-20T06:34:55.378Z,87.38
2022-11-20T06:37:58.341Z,87.55
2022-11-20T06:41:00.958Z,87.73
2022-11-20T06:44:05.960Z,87.65
2022-11-20T06:47:08.677Z,87.43
2022-11-20T06:50:11.578Z,87.58
2022-11-20T06:53:14.289Z,87.92
2022-11-20T06:56:16.994Z,88.41
2022-11-20T06:59:22.560Z,87.48
2022-11-20T07:02:25.471Z,87.26
2022-11-20T07:05:28.118Z,87.56
2022-11-20T07:08:31.047Z,87.34
2022-11-20T07:11:33.793Z,86.60
2022-11-20T07:14:37.815Z,86.41
2022-11-20T07:17:40.460Z,85.76
2022-11-20T07:20:43.232Z,85.54
2022-11-20T07:23:46.100Z,84.46
2022-11-20T07:26:50.035Z,84.74
2022-11-20T07:29:54.042Z,84.83
2022-11-20T07:32:57.916Z,84.35
2022-11-20T07:39:31.118Z,84.62
2022-11-20T07:42:33.937Z,85.40
2022-11-20T07:45:38.179Z,86.46
2022-11-20T07:48:40.851Z,86.34
2022-11-20T07:51:43.621Z,86.30
2022-11-20T07:54:46.280Z,86.96
2022-11-20T07:57:56.330Z,87.18
2022-11-20T08:01:00.700Z,87.40
2022-11-20T08:04:03.399Z,86.62
2022-11-20T08:07:06.268Z,86.77
2022-11-20T08:10:11.342Z,86.88
2022-11-20T08:13:31.555Z,86.41
2022-11-20T08:16:35.569Z,85.62
2022-11-20T08:19:42.880Z,85.63
2022-11-20T08:22:45.577Z,85.60
2022-11-20T08:25:51.878Z,84.12
2022-11-20T08:28:56.417Z,84.86
2022-11-20T08:32:00.468Z,84.79
2022-11-20T08:35:03.198Z,83.91
2022-11-20T08:38:06.817Z,82.97
2022-11-20T08:41:27.945Z,83.05
2022-11-20T08:44:30.614Z,82.77
2022-11-20T08:47:34.592Z,82.12
2022-11-20T08:50:37.252Z,82.01
2022-11-20T08:53:40.346Z,82.47
2022-11-20T08:56:43.020Z,81.98
2022-11-20T09:00:05.033Z,80.77
2022-11-20T09:03:09.854Z,81.59
2022-11-20T09:06:12.484Z,82.20
2022-11-20T09:09:15.127Z,81.64
2022-11-20T09:12:17.976Z,81.99
2022-11-20T09:15:21.495Z,82.64
2022-11-20T09:18:26.413Z,82.53
2022-11-20T09:21:29.092Z,82.38
2022-11-20T09:24:31.750Z,81.71
2022-11-20T09:27:34.419Z,81.91
2022-11-20T09:30:37.434Z,82.73
2022-11-20T09:33:41.538Z,81.75
2022-11-20T09:36:44.187Z,82.63
2022-11-20T09:39:47.143Z,82.50
2022-11-20T09:42:58.511Z,83.09
2022-11-20T09:46:10.910Z,83.96
2022-11-20T09:49:32.573Z,83.28
2022-11-20T09:52:44.267Z,83.33
2022-11-20T09:55:47.972Z,84.46
2022-11-20T09:58:53.973Z,85.87
2022-11-20T10:01:57.690Z,85.73
2022-11-20T10:05:08.474Z,85.84
2022-11-20T10:08:19.730Z,86.35
2022-11-20T10:11:35.317Z,85.18
2022-11-20T10:14:50.548Z,84.84
2022-11-20T10:18:11.381Z,85.19
2022-11-20T10:21:25.760Z,86.16
2022-11-20T10:24:57.058Z,86.66
2022-11-20T10:28:20.842Z,88.45
2022-11-20T10:31:33.528Z,89.05
2022-11-20T10:34:46.759Z,89.63
2022-11-20T10:37:56.727Z,89.86
2022-11-20T10:41:16.502Z,90.00
2022-11-20T10:44:37.061Z,90.31
2022-11-20T10:47:39.701Z,89.14
2022-11-20T10:50:51.842Z,88.74
2022-11-20T10:54:03.808Z,89.24
2022-11-20T10:57:16.436Z,89.52
2022-11-20T11:00:19.180Z,90.63
2022-11-20T11:03:28.239Z,91.58
2022-11-20T11:06:38.296Z,91.90
2022-11-20T11:09:45.991Z,92.51
2022-11-20T11:12:49.887Z,92.92
2022-11-20T11:15:53.360Z,92.49
2022-11-20T11:19:06.585Z,91.68
2022-11-20T11:22:17.824Z,91.32
2022-11-20T11:25:30.878Z,90.84
2022-11-20T11:28:33.817Z,90.09
2022-11-20T11:31:37.287Z,88.82
2022-11-20T11:34:39.951Z,87.28
2022-11-20T11:37:42.981Z,84.51
2022-11-20T11:40:48.649Z,81.95
2022-11-20T11:44:12.593Z,78.51
2022-11-20T11:47:25.008Z,72.98
2022-11-20T11:50:29.466Z,71.91
2022-11-20T11:53:32.457Z,69.28
2022-11-20T11:56:36.684Z,70.47
2022-11-20T11:59:53.487Z,71.27
2022-11-20T12:03:06.243Z,73.44
2022-11-20T12:06:14.777Z,73.56
2022-11-20T12:09:20.961Z,73.48
2022-11-20T12:12:29.392Z,71.30
2022-11-20T12:15:35.680Z,68.04
2022-11-20T12:18:38.346Z,64.64
2022-11-20T12:21:59.981Z,57.86
2022-11-20T12:25:11.576Z,52.27
2022-11-20T12:28:37.848Z,48.88
2022-11-20T12:31:54.993Z,47.68
2022-11-20T12:35:11.225Z,44.23
2022-11-20T12:38:47.276Z,41.20
2022-11-20T12:42:16.614Z,43.16
2022-11-20T12:45:55.359Z,41.76
2022-11-20T12:49:17.820Z,45.65
2022-11-20T12:52:37.153Z,49.63
2022-11-20T12:55:51.590Z,52.20
2022-11-20T12:59:09.954Z,50.46
2022-11-20T13:02:26.384Z,52.43
2022-11-20T13:05:36.381Z,54.03
2022-11-20T13:08:41.764Z,56.57
2022-11-20T13:11:49.638Z,59.45
2022-11-20T13:14:58.315Z,61.15
2022-11-20T13:18:04.955Z,63.14
2022-11-20T13:21:17.351Z,61.97
2022-11-20T13:24:27.339Z,61.75
2022-11-20T13:27:31.875Z,62.21
2022-11-20T13:30:36.360Z,61.62
2022-11-20T13:33:41.066Z,60.24
2022-11-20T13:36:53.104Z,59.84
2022-11-20T13:40:07.670Z,58.48
2022-11-20T13:43:19.987Z,57.99
2022-11-20T13:46:25.459Z,58.86
2022-11-20T13:49:34.111Z,58.93
2022-11-20T13:52:48.255Z,61.61
2022-11-20T13:55:57.264Z,61.34
2022-11-20T13:59:14.605Z,61.44
2022-11-20T14:02:21.378Z,62.12
2022-11-20T14:05:25.850Z,62.31
2022-11-20T14:08:35.569Z,63.51
2022-11-20T14:11:38.211Z,65.44
2022-11-20T14:14:51.979Z,65.87
2022-11-20T14:17:54.826Z,66.48
2022-11-20T14:21:02.536Z,66.88
2022-11-20T14:24:06.566Z,67.76
2022-11-20T14:27:15.333Z,67.96
2022-11-20T14:30:20.441Z,69.31
2022-11-20T14:33:25.770Z,69.37
2022-11-20T14:36:30.031Z,70.21
2022-11-20T14:39:35.788Z,69.02
2022-11-20T14:42:38.463Z,69.08
2022-11-20T14:45:41.232Z,69.59
2022-11-20T14:48:46.484Z,69.83
2022-11-20T14:52:01.619Z,69.90
2022-11-20T14:55:04.523Z,70.42
2022-11-20T14:58:08.608Z,71.11
2022-11-20T15:01:15.351Z,71.48
2022-11-20T15:04:18.123Z,72.24
2022-11-20T15:07:30.561Z,72.30
2022-11-20T15:10:33.585Z,72.75
2022-11-20T15:13:39.445Z,73.75
2022-11-20T15:16:42.476Z,73.14
2022-11-20T15:19:45.423Z,73.95
2022-11-20T15:22:49.489Z,74.60
2022-11-20T15:25:52.429Z,75.17
2022-11-20T15:28:55.912Z,75.54
2022-11-20T15:31:58.738Z,75.90
2022-11-20T15:35:01.569Z,75.97
2022-11-20T15:38:05.761Z,76.13
2022-11-20T15:41:09.254Z,76.79
2022-11-20T15:44:12.144Z,77.54
2022-11-20T15:47:14.859Z,78.41
2022-11-20T15:50:19.554Z,78.89
2022-11-20T15:53:23.571Z,79.06
2022-11-20T15:56:26.630Z,79.36
2022-11-20T15:59:29.339Z,80.59
2022-11-20T16:02:32.004Z,81.00
2022-11-20T16:05:34.781Z,82.00
2022-11-20T16:08:38.851Z,82.65
2022-11-20T16:11:41.523Z,82.93
2022-11-20T16:15:02.077Z,82.59
2022-11-20T16:18:04.932Z,82.53
2022-11-20T16:21:13.336Z,82.58
2022-11-20T16:24:17.934Z,82.50
2022-11-20T16:27:20.718Z,81.89
2022-11-20T16:30:23.375Z,80.55
2022-11-20T16:33:26.022Z,80.34
2022-11-20T16:36:30.848Z,80.19
2022-11-20T16:39:34.836Z,79.89
2022-11-20T16:42:38.613Z,79.98
2022-11-20T16:45:46.021Z,80.25
2022-11-20T16:48:54.472Z,80.96
2022-11-20T16:51:57.135Z,80.27
2022-11-20T16:55:01.291Z,80.09
2022-11-20T16:58:03.960Z,80.11
2022-11-20T17:01:10.454Z,80.52
2022-11-20T17:04:13.377Z,80.45
2022-11-20T17:07:16.476Z,80.87
2022-11-20T17:10:20.686Z,80.98
2022-11-20T17:13:23.291Z,80.90
2022-11-20T17:16:26.033Z,80.61
2022-11-20T17:19:28.735Z,80.30
2022-11-20T17:22:32.537Z,79.80
2022-11-20T17:25:36.616Z,79.65
2022-11-20T17:28:39.694Z,79.38
2022-11-20T17:31:42.703Z,79.07
2022-11-20T17:34:45.428Z,79.01
2022-11-20T17:37:48.066Z,78.95
2022-11-20T17:40:52.255Z,78.65
2022-11-20T17:43:56.296Z,77.56
2022-11-20T17:46:58.919Z,77.21
2022-11-20T17:50:01.577Z,77.13
2022-11-20T17:53:04.291Z,76.61
2022-11-20T17:56:26.408Z,76.75
2022-11-20T17:59:29.116Z,76.30
2022-11-20T18:02:32.007Z,76.21
2022-11-20T18:05:34.685Z,76.80
2022-11-20T18:08:37.403Z,75.86
2022-11-20T18:11:42.881Z,75.21
2022-11-20T18:14:45.610Z,75.39
2022-11-20T18:17:48.353Z,75.60
2022-11-20T18:20:54.416Z,74.94
2022-11-20T18:23:57.767Z,74.33
2022-11-20T18:27:01.842Z,73.37
2022-11-20T18:30:05.196Z,73.43
2022-11-20T18:33:08.205Z,74.10
2022-11-20T18:36:12.244Z,74.13
2022-11-20T18:39:15.558Z,74.31
2022-11-20T18:42:37.266Z,74.12
2022-11-20T18:45:39.910Z,74.51
2022-11-20T18:48:42.618Z,75.99
2022-11-20T18:51:48.219Z,76.14
2022-11-20T18:54:51.671Z,75.31
2022-11-20T18:57:56.100Z,75.28
2022-11-20T19:01:05.981Z,77.66
2022-11-20T19:04:09.553Z,77.72
2022-11-20T19:07:12.988Z,78.72
2022-11-20T19:10:18.815Z,79.90
2022-11-20T19:13:22.987Z,80.96
2022-11-20T19:16:25.877Z,81.48
2022-11-20T19:19:29.006Z,80.73
2022-11-20T19:22:31.671Z,81.01
2022-11-20T19:25:38.116Z,81.59
2022-11-20T19:28:42.488Z,82.70
2022-11-20T19:31:45.329Z,82.29
2022-11-20T19:34:48.076Z,81.50
2022-11-20T19:37:52.621Z,80.28
2022-11-20T19:40:55.270Z,80.40
2022-11-20T19:44:00.847Z,80.60
2022-11-20T19:47:09.012Z,79.44
2022-11-20T19:50:18.713Z,77.77
2022-11-20T19:53:21.393Z,78.12
2022-11-20T19:56:27.175Z,78.06
2022-11-20T19:59:31.195Z,77.83
2022-11-20T20:02:34.132Z,76.63
2022-11-20T20:05:36.782Z,76.26
2022-11-20T20:08:39.443Z,76.18
2022-11-20T20:11:46.270Z,75.76
2022-11-20T20:14:50.259Z,76.44
2022-11-20T20:17:53.269Z,76.27
2022-11-20T20:20:58.501Z,77.21
2022-11-20T20:24:05.736Z,76.54
2022-11-20T20:27:08.444Z,76.52
2022-11-20T20:30:14.016Z,76.72
2022-11-20T20:33:16.704Z,76.36
2022-11-20T20:36:20.914Z,75.66
2022-11-20T20:39:24.724Z,76.13
2022-11-20T20:42:27.710Z,76.30
2022-11-20T20:45:31.863Z,77.52
2022-11-20T20:48:34.517Z,77.17
2022-11-20T20:51:37.742Z,76.97
2022-11-20T20:54:43.362Z,76.67
2022-11-20T20:57:46.115Z,76.37
2022-11-20T21:00:50.191Z,76.60
2022-11-20T21:03:52.800Z,77.52
2022-11-20T21:06:55.509Z,77.82
2022-11-20T21:09:58.174Z,77.85
2022-11-20T21:13:00.884Z,77.98
2022-11-20T21:16:07.735Z,78.47
2022-11-20T21:19:10.613Z,78.68
2022-11-20T21:22:13.324Z,79.87
2022-11-20T21:25:16.021Z,79.67
2022-11-20T21:28:18.784Z,78.99
2022-11-20T21:31:24.854Z,79.94
2022-11-20T21:34:27.669Z,80.94
2022-11-20T21:37:30.258Z,81.66
2022-11-20T21:40:32.982Z,81.62
2022-11-20T21:43:35.871Z,82.45
2022-11-20T21:46:42.176Z,81.95
2022-11-20T21:49:44.826Z,81.92
2022-11-20T21:52:47.589Z,81.65
2022-11-20T21:55:54.591Z,80.85
2022-11-20T21:58:58.103Z,80.76
2022-11-20T22:02:02.118Z,80.87
2022-11-20T22:05:05.102Z,81.56
2022-11-20T22:08:07.881Z,81.12
2022-11-20T22:11:12.668Z,81.97
2022-11-20T22:14:21.732Z,81.30
2022-11-20T22:17:39.899Z,81.42
2022-11-20T22:20:42.968Z,81.99
2022-11-20T22:23:45.909Z,82.49
2022-11-20T22:26:48.802Z,82.79
2022-11-20T22:29:51.449Z,82.45
2022-11-20T22:32:56.393Z,82.08
2022-11-20T22:36:02.400Z,83.52
2022-11-20T22:39:05.708Z,83.88
2022-11-20T22:42:08.560Z,84.02
2022-11-20T22:45:12.434Z,84.78
2022-11-20T22:48:16.447Z,84.33
2022-11-20T22:51:20.990Z,84.46
2022-11-20T22:54:24.052Z,84.43
2022-11-20T22:57:26.855Z,83.71
2022-11-20T23:00:29.527Z,84.06
2022-11-20T23:03:33.594Z,84.32
2022-11-20T23:06:36.385Z,83.51
2022-11-20T23:09:39.063Z,83.22
2022-11-20T23:12:41.816Z,82.95
2022-11-20T23:15:44.412Z,83.04
2022-11-20T23:18:48.411Z,82.23
2022-11-20T23:21:51.059Z,82.71
2022-11-20T23:24:53.695Z,83.37
2022-11-20T23:27:56.324Z,82.36
2022-11-20T23:30:59.439Z,82.26
2022-11-20T23:34:04.018Z,82.83
2022-11-20T23:37:06.650Z,83.50
2022-11-20T23:40:10.149Z,83.12
2022-11-20T23:43:18.847Z,82.26
2022-11-20T23:46:21.795Z,82.37
2022-11-20T23:49:25.816Z,81.86
2022-11-20T23:52:28.431Z,81.73
2022-11-20T23:55:31.411Z,81.63
2022-11-20T23:58:35.888Z,81.58
